sensor_id;sensor_type;location;lat;lon;timestamp;temperature;humidity
39779;DHT22;25454;49.878;8.618;2023-05-07T00:02:57;17.00;99.90
39779;DHT22;25454;49.878;8.618;2023-05-07T00:07:57;17.10;99.90
39779;DHT22;25454;49.878;8.618;2023-05-07T00:12:58;17.10;99.90
39779;DHT22;25454;49.878;8.618;2023-05-07T00:17:59;17.10;99.90
39779;DHT22;25454;49.878;8.618;2023-05-07T00:22:59;17.00;99.90
39779;DHT22;25454;49.878;8.618;2023-05-07T00:28:00;17.00;99.90
39779;DHT22;25454;49.878;8.618;2023-05-07T00:33:03;16.90;99.90
39779;DHT22;25454;49.878;8.618;2023-05-07T00:38:04;16.90;99.90
39779;DHT22;25454;49.878;8.618;2023-05-07T00:43:05;16.90;99.90
39779;DHT22;25454;49.878;8.618;2023-05-07T00:48:06;16.90;99.90
39779;DHT22;25454;49.878;8.618;2023-05-07T00:53:06;16.80;99.90
39779;DHT22;25454;49.878;8.618;2023-05-07T00:58:08;16.70;99.90
39779;DHT22;25454;49.878;8.618;2023-05-07T01:03:09;16.70;99.90
39779;DHT22;25454;49.878;8.618;2023-05-07T01:08:10;16.80;99.90
39779;DHT22;25454;49.878;8.618;2023-05-07T01:13:12;16.80;99.90
39779;DHT22;25454;49.878;8.618;2023-05-07T01:18:13;16.70;99.90
39779;DHT22;25454;49.878;8.618;2023-05-07T01:23:15;16.60;99.90
39779;DHT22;25454;49.878;8.618;2023-05-07T01:28:15;16.60;99.90
39779;DHT22;25454;49.878;8.618;2023-05-07T01:33:19;16.50;99.90
39779;DHT22;25454;49.878;8.618;2023-05-07T01:38:22;16.50;99.90
39779;DHT22;25454;49.878;8.618;2023-05-07T01:43:23;16.50;99.90
39779;DHT22;25454;49.878;8.618;2023-05-07T01:48:24;16.50;99.90
39779;DHT22;25454;49.878;8.618;2023-05-07T01:53:27;16.50;99.90
39779;DHT22;25454;49.878;8.618;2023-05-07T01:58:31;16.40;99.90
39779;DHT22;25454;49.878;8.618;2023-05-07T02:03:31;16.40;99.90
39779;DHT22;25454;49.878;8.618;2023-05-07T02:08:32;16.40;99.90
39779;DHT22;25454;49.878;8.618;2023-05-07T02:13:33;16.40;99.90
39779;DHT22;25454;49.878;8.618;2023-05-07T02:18:34;16.40;99.90
39779;DHT22;25454;49.878;8.618;2023-05-07T02:23:36;16.30;99.90
39779;DHT22;25454;49.878;8.618;2023-05-07T02:28:36;16.20;99.90
39779;DHT22;25454;49.878;8.618;2023-05-07T02:33:37;16.10;99.90
39779;DHT22;25454;49.878;8.618;2023-05-07T02:38:41;16.10;99.90
39779;DHT22;25454;49.878;8.618;2023-05-07T02:43:41;16.00;99.90
39779;DHT22;25454;49.878;8.618;2023-05-07T02:48:42;16.00;99.90
39779;DHT22;25454;49.878;8.618;2023-05-07T02:53:46;15.90;99.90
39779;DHT22;25454;49.878;8.618;2023-05-07T02:58:46;15.90;99.90
39779;DHT22;25454;49.878;8.618;2023-05-07T03:03:47;15.90;99.90
39779;DHT22;25454;49.878;8.618;2023-05-07T03:08:48;15.80;99.90
39779;DHT22;25454;49.878;8.618;2023-05-07T03:13:48;15.90;99.90
39779;DHT22;25454;49.878;8.618;2023-05-07T03:18:49;15.80;99.90
39779;DHT22;25454;49.878;8.618;2023-05-07T03:23:50;15.90;99.90
39779;DHT22;25454;49.878;8.618;2023-05-07T03:28:54;16.00;99.90
39779;DHT22;25454;49.878;8.618;2023-05-07T03:33:57;16.10;99.90
39779;DHT22;25454;49.878;8.618;2023-05-07T03:38:57;16.10;99.90
39779;DHT22;25454;49.878;8.618;2023-05-07T03:43:58;16.10;99.90
39779;DHT22;25454;49.878;8.618;2023-05-07T03:48:58;16.10;99.90
39779;DHT22;25454;49.878;8.618;2023-05-07T03:53:59;16.10;99.90
39779;DHT22;25454;49.878;8.618;2023-05-07T03:59:00;16.00;99.90
39779;DHT22;25454;49.878;8.618;2023-05-07T04:04:01;16.00;99.90
39779;DHT22;25454;49.878;8.618;2023-05-07T04:09:03;16.00;99.90
39779;DHT22;25454;49.878;8.618;2023-05-07T04:14:03;16.00;99.90
39779;DHT22;25454;49.878;8.618;2023-05-07T04:19:04;16.10;99.90
39779;DHT22;25454;49.878;8.618;2023-05-07T04:24:06;16.10;99.90
39779;DHT22;25454;49.878;8.618;2023-05-07T04:29:06;16.10;99.90
39779;DHT22;25454;49.878;8.618;2023-05-07T04:34:07;16.10;99.90
39779;DHT22;25454;49.878;8.618;2023-05-07T04:39:08;16.10;99.90
39779;DHT22;25454;49.878;8.618;2023-05-07T04:44:13;16.10;99.90
39779;DHT22;25454;49.878;8.618;2023-05-07T04:49:14;16.10;99.90
39779;DHT22;25454;49.878;8.618;2023-05-07T04:54:15;16.10;99.90
39779;DHT22;25454;49.878;8.618;2023-05-07T04:59:15;16.10;99.90
39779;DHT22;25454;49.878;8.618;2023-05-07T05:04:16;16.30;99.90
39779;DHT22;25454;49.878;8.618;2023-05-07T05:09:17;16.40;99.90
39779;DHT22;25454;49.878;8.618;2023-05-07T05:14:17;16.40;99.90
39779;DHT22;25454;49.878;8.618;2023-05-07T05:19:18;16.50;99.90
39779;DHT22;25454;49.878;8.618;2023-05-07T05:24:19;16.70;99.90
39779;DHT22;25454;49.878;8.618;2023-05-07T05:29:20;16.80;99.90
39779;DHT22;25454;49.878;8.618;2023-05-07T05:34:20;16.90;99.90
39779;DHT22;25454;49.878;8.618;2023-05-07T05:39:22;17.00;99.90
39779;DHT22;25454;49.878;8.618;2023-05-07T05:44:23;17.10;99.90
39779;DHT22;25454;49.878;8.618;2023-05-07T05:49:24;17.00;99.90
39779;DHT22;25454;49.878;8.618;2023-05-07T05:54:24;17.00;99.90
39779;DHT22;25454;49.878;8.618;2023-05-07T05:59:25;17.20;99.90
39779;DHT22;25454;49.878;8.618;2023-05-07T06:04:25;17.40;99.90
39779;DHT22;25454;49.878;8.618;2023-05-07T06:09:26;17.50;99.90
39779;DHT22;25454;49.878;8.618;2023-05-07T06:14:27;17.60;99.90
39779;DHT22;25454;49.878;8.618;2023-05-07T06:19:27;17.60;99.90
39779;DHT22;25454;49.878;8.618;2023-05-07T06:24:28;17.70;99.90
39779;DHT22;25454;49.878;8.618;2023-05-07T06:29:29;17.60;99.90
39779;DHT22;25454;49.878;8.618;2023-05-07T06:34:31;17.70;99.90
39779;DHT22;25454;49.878;8.618;2023-05-07T06:39:32;17.70;99.90
39779;DHT22;25454;49.878;8.618;2023-05-07T06:44:33;17.70;99.90
39779;DHT22;25454;49.878;8.618;2023-05-07T06:49:33;17.80;99.90
39779;DHT22;25454;49.878;8.618;2023-05-07T06:54:34;17.80;99.90
39779;DHT22;25454;49.878;8.618;2023-05-07T06:59:35;17.90;99.90
39779;DHT22;25454;49.878;8.618;2023-05-07T07:04:35;17.70;99.90
39779;DHT22;25454;49.878;8.618;2023-05-07T07:09:36;17.60;99.90
39779;DHT22;25454;49.878;8.618;2023-05-07T07:14:36;17.50;99.90
39779;DHT22;25454;49.878;8.618;2023-05-07T07:19:37;17.40;99.90
39779;DHT22;25454;49.878;8.618;2023-05-07T07:24:39;17.50;99.90
39779;DHT22;25454;49.878;8.618;2023-05-07T07:29:39;17.70;99.90
39779;DHT22;25454;49.878;8.618;2023-05-07T07:34:40;17.70;99.90
39779;DHT22;25454;49.878;8.618;2023-05-07T07:39:40;17.90;99.90
39779;DHT22;25454;49.878;8.618;2023-05-07T07:44:41;18.10;99.90
39779;DHT22;25454;49.878;8.618;2023-05-07T07:49:43;18.40;99.90
39779;DHT22;25454;49.878;8.618;2023-05-07T07:54:44;18.40;99.90
39779;DHT22;25454;49.878;8.618;2023-05-07T07:59:44;18.50;99.90
39779;DHT22;25454;49.878;8.618;2023-05-07T08:04:45;18.50;99.90
39779;DHT22;25454;49.878;8.618;2023-05-07T08:09:46;18.70;99.90
39779;DHT22;25454;49.878;8.618;2023-05-07T08:14:47;18.90;99.90
39779;DHT22;25454;49.878;8.618;2023-05-07T08:19:48;19.20;99.90
39779;DHT22;25454;49.878;8.618;2023-05-07T08:24:48;19.20;99.90
39779;DHT22;25454;49.878;8.618;2023-05-07T08:29:49;19.50;99.90
39779;DHT22;25454;49.878;8.618;2023-05-07T08:34:50;19.70;99.90
39779;DHT22;25454;49.878;8.618;2023-05-07T08:39:50;19.80;99.90
39779;DHT22;25454;49.878;8.618;2023-05-07T08:44:51;19.70;99.90
39779;DHT22;25454;49.878;8.618;2023-05-07T08:49:59;19.50;99.90
39779;DHT22;25454;49.878;8.618;2023-05-07T08:55:02;19.60;99.90
39779;DHT22;25454;49.878;8.618;2023-05-07T09:00:04;19.90;99.90
39779;DHT22;25454;49.878;8.618;2023-05-07T09:05:05;20.30;99.90
39779;DHT22;25454;49.878;8.618;2023-05-07T09:10:06;20.10;99.90
39779;DHT22;25454;49.878;8.618;2023-05-07T09:15:07;20.30;99.90
39779;DHT22;25454;49.878;8.618;2023-05-07T09:20:08;20.50;99.90
39779;DHT22;25454;49.878;8.618;2023-05-07T09:25:09;20.80;99.90
39779;DHT22;25454;49.878;8.618;2023-05-07T09:30:10;20.70;99.90
39779;DHT22;25454;49.878;8.618;2023-05-07T09:35:15;21.00;99.90
39779;DHT22;25454;49.878;8.618;2023-05-07T09:40:24;21.40;99.90
39779;DHT22;25454;49.878;8.618;2023-05-07T09:45:28;21.80;99.90
39779;DHT22;25454;49.878;8.618;2023-05-07T09:50:34;22.20;99.90
39779;DHT22;25454;49.878;8.618;2023-05-07T09:55:39;22.70;99.90
39779;DHT22;25454;49.878;8.618;2023-05-07T10:00:40;23.10;99.90
39779;DHT22;25454;49.878;8.618;2023-05-07T10:05:42;23.20;99.90
39779;DHT22;25454;49.878;8.618;2023-05-07T10:10:44;23.10;99.60
39779;DHT22;25454;49.878;8.618;2023-05-07T10:15:45;22.70;99.90
39779;DHT22;25454;49.878;8.618;2023-05-07T10:20:47;23.30;99.70
39779;DHT22;25454;49.878;8.618;2023-05-07T10:25:48;24.00;98.00
39779;DHT22;25454;49.878;8.618;2023-05-07T10:35:59;25.20;94.40
39779;DHT22;25454;49.878;8.618;2023-05-07T10:41:04;26.20;92.00
39779;DHT22;25454;49.878;8.618;2023-05-07T10:46:13;28.10;83.40
39779;DHT22;25454;49.878;8.618;2023-05-07T10:51:21;28.10;78.00
39779;DHT22;25454;49.878;8.618;2023-05-07T10:56:25;28.40;75.30
39779;DHT22;25454;49.878;8.618;2023-05-07T11:02:05;27.00;77.20
39779;DHT22;25454;49.878;8.618;2023-05-07T11:12:08;28.20;70.70
39779;DHT22;25454;49.878;8.618;2023-05-07T11:17:09;29.20;69.10
39779;DHT22;25454;49.878;8.618;2023-05-07T11:27:32;29.70;61.20
39779;DHT22;25454;49.878;8.618;2023-05-07T11:32:33;29.70;59.50
39779;DHT22;25454;49.878;8.618;2023-05-07T11:37:34;29.00;62.00
39779;DHT22;25454;49.878;8.618;2023-05-07T11:42:36;28.50;62.00
39779;DHT22;25454;49.878;8.618;2023-05-07T11:47:37;27.80;63.70
39779;DHT22;25454;49.878;8.618;2023-05-07T11:52:38;26.10;67.70
39779;DHT22;25454;49.878;8.618;2023-05-07T11:57:42;25.60;71.20
39779;DHT22;25454;49.878;8.618;2023-05-07T12:02:44;24.90;71.90
39779;DHT22;25454;49.878;8.618;2023-05-07T12:07:45;24.80;72.70
39779;DHT22;25454;49.878;8.618;2023-05-07T12:12:49;24.90;72.80
39779;DHT22;25454;49.878;8.618;2023-05-07T12:17:49;24.70;71.60
39779;DHT22;25454;49.878;8.618;2023-05-07T12:22:50;24.70;73.10
39779;DHT22;25454;49.878;8.618;2023-05-07T12:27:53;24.40;74.80
39779;DHT22;25454;49.878;8.618;2023-05-07T12:32:54;24.60;74.50
39779;DHT22;25454;49.878;8.618;2023-05-07T12:37:56;24.90;74.50
39779;DHT22;25454;49.878;8.618;2023-05-07T12:42:59;25.10;72.60
39779;DHT22;25454;49.878;8.618;2023-05-07T12:48:01;25.20;69.20
39779;DHT22;25454;49.878;8.618;2023-05-07T12:53:04;25.00;70.10
39779;DHT22;25454;49.878;8.618;2023-05-07T12:58:06;25.10;66.50
39779;DHT22;25454;49.878;8.618;2023-05-07T13:03:06;24.90;66.80
39779;DHT22;25454;49.878;8.618;2023-05-07T13:08:07;24.50;69.40
39779;DHT22;25454;49.878;8.618;2023-05-07T13:13:09;24.50;70.70
39779;DHT22;25454;49.878;8.618;2023-05-07T13:18:10;24.50;70.80
39779;DHT22;25454;49.878;8.618;2023-05-07T13:23:11;24.50;70.00
39779;DHT22;25454;49.878;8.618;2023-05-07T13:28:12;24.80;68.80
39779;DHT22;25454;49.878;8.618;2023-05-07T13:33:13;25.10;67.60
39779;DHT22;25454;49.878;8.618;2023-05-07T13:38:16;24.90;68.90
39779;DHT22;25454;49.878;8.618;2023-05-07T13:43:18;25.20;67.00
39779;DHT22;25454;49.878;8.618;2023-05-07T13:48:19;25.60;69.10
39779;DHT22;25454;49.878;8.618;2023-05-07T13:53:19;25.30;67.20
39779;DHT22;25454;49.878;8.618;2023-05-07T13:58:20;25.10;68.30
39779;DHT22;25454;49.878;8.618;2023-05-07T14:03:20;25.00;66.60
39779;DHT22;25454;49.878;8.618;2023-05-07T14:08:21;25.00;67.80
39779;DHT22;25454;49.878;8.618;2023-05-07T14:13:21;25.30;67.90
39779;DHT22;25454;49.878;8.618;2023-05-07T14:18:22;25.40;66.90
39779;DHT22;25454;49.878;8.618;2023-05-07T14:23:23;25.20;67.20
39779;DHT22;25454;49.878;8.618;2023-05-07T14:28:26;25.00;68.70
39779;DHT22;25454;49.878;8.618;2023-05-07T14:33:30;24.70;68.80
39779;DHT22;25454;49.878;8.618;2023-05-07T14:38:30;24.70;69.70
39779;DHT22;25454;49.878;8.618;2023-05-07T14:43:33;24.40;70.70
39779;DHT22;25454;49.878;8.618;2023-05-07T14:48:33;24.50;71.30
39779;DHT22;25454;49.878;8.618;2023-05-07T14:53:37;24.50;70.40
39779;DHT22;25454;49.878;8.618;2023-05-07T14:58:38;24.50;70.60
39779;DHT22;25454;49.878;8.618;2023-05-07T15:03:39;24.20;70.80
39779;DHT22;25454;49.878;8.618;2023-05-07T15:08:39;23.90;71.40
39779;DHT22;25454;49.878;8.618;2023-05-07T15:13:42;23.70;72.80
39779;DHT22;25454;49.878;8.618;2023-05-07T15:18:43;23.60;73.00
39779;DHT22;25454;49.878;8.618;2023-05-07T15:23:43;23.40;73.90
39779;DHT22;25454;49.878;8.618;2023-05-07T15:28:44;23.20;75.30
39779;DHT22;25454;49.878;8.618;2023-05-07T15:33:45;23.10;75.90
39779;DHT22;25454;49.878;8.618;2023-05-07T15:38:47;23.00;77.20
39779;DHT22;25454;49.878;8.618;2023-05-07T15:43:50;22.90;76.50
39779;DHT22;25454;49.878;8.618;2023-05-07T15:48:51;22.80;77.20
39779;DHT22;25454;49.878;8.618;2023-05-07T15:53:52;22.80;77.90
39779;DHT22;25454;49.878;8.618;2023-05-07T15:58:53;22.70;82.90
39779;DHT22;25454;49.878;8.618;2023-05-07T16:03:53;22.20;93.10
39779;DHT22;25454;49.878;8.618;2023-05-07T16:08:54;21.40;96.60
39779;DHT22;25454;49.878;8.618;2023-05-07T16:13:54;20.80;99.90
39779;DHT22;25454;49.878;8.618;2023-05-07T16:18:55;20.10;99.90
39779;DHT22;25454;49.878;8.618;2023-05-07T16:23:56;19.50;99.90
39779;DHT22;25454;49.878;8.618;2023-05-07T16:28:57;19.10;99.90
39779;DHT22;25454;49.878;8.618;2023-05-07T16:33:58;18.90;99.90
39779;DHT22;25454;49.878;8.618;2023-05-07T16:38:59;18.70;99.90
39779;DHT22;25454;49.878;8.618;2023-05-07T16:44:00;18.60;99.90
39779;DHT22;25454;49.878;8.618;2023-05-07T16:49:00;18.50;99.90
39779;DHT22;25454;49.878;8.618;2023-05-07T16:54:02;18.50;99.90
39779;DHT22;25454;49.878;8.618;2023-05-07T16:59:02;18.30;99.90
39779;DHT22;25454;49.878;8.618;2023-05-07T17:04:03;18.20;99.90
39779;DHT22;25454;49.878;8.618;2023-05-07T17:09:03;18.00;99.90
39779;DHT22;25454;49.878;8.618;2023-05-07T17:14:04;17.80;99.90
39779;DHT22;25454;49.878;8.618;2023-05-07T17:19:07;17.70;99.90
39779;DHT22;25454;49.878;8.618;2023-05-07T17:24:08;17.70;99.90
39779;DHT22;25454;49.878;8.618;2023-05-07T17:29:09;17.80;99.90
39779;DHT22;25454;49.878;8.618;2023-05-07T17:34:10;17.80;99.90
39779;DHT22;25454;49.878;8.618;2023-05-07T17:39:11;17.70;99.90
39779;DHT22;25454;49.878;8.618;2023-05-07T17:44:12;17.50;99.90
39779;DHT22;25454;49.878;8.618;2023-05-07T17:49:14;17.40;99.90
39779;DHT22;25454;49.878;8.618;2023-05-07T17:54:15;17.40;99.90
39779;DHT22;25454;49.878;8.618;2023-05-07T17:59:15;17.40;99.90
39779;DHT22;25454;49.878;8.618;2023-05-07T18:04:16;17.50;99.90
39779;DHT22;25454;49.878;8.618;2023-05-07T18:09:18;17.50;99.90
39779;DHT22;25454;49.878;8.618;2023-05-07T18:14:19;17.60;99.90
39779;DHT22;25454;49.878;8.618;2023-05-07T18:19:23;17.50;99.90
39779;DHT22;25454;49.878;8.618;2023-05-07T18:24:25;17.40;99.90
39779;DHT22;25454;49.878;8.618;2023-05-07T18:29:26;17.40;99.90
39779;DHT22;25454;49.878;8.618;2023-05-07T18:34:27;17.40;99.90
39779;DHT22;25454;49.878;8.618;2023-05-07T18:39:27;17.40;99.90
39779;DHT22;25454;49.878;8.618;2023-05-07T18:44:28;17.30;99.90
39779;DHT22;25454;49.878;8.618;2023-05-07T18:49:31;17.30;99.90
39779;DHT22;25454;49.878;8.618;2023-05-07T18:54:32;17.30;99.90
39779;DHT22;25454;49.878;8.618;2023-05-07T18:59:32;17.30;99.90
39779;DHT22;25454;49.878;8.618;2023-05-07T19:04:33;17.30;99.90
39779;DHT22;25454;49.878;8.618;2023-05-07T19:09:33;17.30;99.90
39779;DHT22;25454;49.878;8.618;2023-05-07T19:14:34;17.30;99.90
39779;DHT22;25454;49.878;8.618;2023-05-07T19:19:34;17.30;99.90
39779;DHT22;25454;49.878;8.618;2023-05-07T19:24:35;17.20;99.90
39779;DHT22;25454;49.878;8.618;2023-05-07T19:29:36;17.10;99.90
39779;DHT22;25454;49.878;8.618;2023-05-07T19:34:37;17.20;99.90
39779;DHT22;25454;49.878;8.618;2023-05-07T19:39:37;17.10;99.90
39779;DHT22;25454;49.878;8.618;2023-05-07T19:44:38;17.00;99.90
39779;DHT22;25454;49.878;8.618;2023-05-07T19:49:38;17.00;99.90
39779;DHT22;25454;49.878;8.618;2023-05-07T19:54:39;17.00;99.90
39779;DHT22;25454;49.878;8.618;2023-05-07T19:59:40;17.00;99.90
39779;DHT22;25454;49.878;8.618;2023-05-07T20:04:40;17.00;99.90
39779;DHT22;25454;49.878;8.618;2023-05-07T20:09:41;17.00;99.90
39779;DHT22;25454;49.878;8.618;2023-05-07T20:14:41;17.00;99.90
39779;DHT22;25454;49.878;8.618;2023-05-07T20:19:42;17.00;99.90
39779;DHT22;25454;49.878;8.618;2023-05-07T20:24:42;17.00;99.90
39779;DHT22;25454;49.878;8.618;2023-05-07T20:29:43;16.90;99.90
39779;DHT22;25454;49.878;8.618;2023-05-07T20:34:44;16.90;99.90
39779;DHT22;25454;49.878;8.618;2023-05-07T20:39:44;16.80;99.90
39779;DHT22;25454;49.878;8.618;2023-05-07T20:44:45;16.70;99.90
39779;DHT22;25454;49.878;8.618;2023-05-07T20:49:50;16.60;99.90
39779;DHT22;25454;49.878;8.618;2023-05-07T20:54:51;16.60;99.90
39779;DHT22;25454;49.878;8.618;2023-05-07T20:59:52;16.60;99.90
39779;DHT22;25454;49.878;8.618;2023-05-07T21:04:53;16.60;99.90
39779;DHT22;25454;49.878;8.618;2023-05-07T21:09:53;16.70;99.90
39779;DHT22;25454;49.878;8.618;2023-05-07T21:14:55;16.60;99.90
39779;DHT22;25454;49.878;8.618;2023-05-07T21:19:56;16.60;99.90
39779;DHT22;25454;49.878;8.618;2023-05-07T21:24:56;16.50;99.90
39779;DHT22;25454;49.878;8.618;2023-05-07T21:29:57;16.40;99.90
39779;DHT22;25454;49.878;8.618;2023-05-07T21:35:02;16.50;99.90
39779;DHT22;25454;49.878;8.618;2023-05-07T21:40:04;16.50;99.90
39779;DHT22;25454;49.878;8.618;2023-05-07T21:45:05;16.50;99.90
39779;DHT22;25454;49.878;8.618;2023-05-07T21:50:06;16.50;99.90
39779;DHT22;25454;49.878;8.618;2023-05-07T21:55:07;16.50;99.90
39779;DHT22;25454;49.878;8.618;2023-05-07T22:00:08;16.60;99.90
39779;DHT22;25454;49.878;8.618;2023-05-07T22:05:09;16.50;99.90
39779;DHT22;25454;49.878;8.618;2023-05-07T22:10:09;16.50;99.90
39779;DHT22;25454;49.878;8.618;2023-05-07T22:15:10;16.40;99.90
39779;DHT22;25454;49.878;8.618;2023-05-07T22:20:11;16.40;99.90
39779;DHT22;25454;49.878;8.618;2023-05-07T22:25:12;16.40;99.90
39779;DHT22;25454;49.878;8.618;2023-05-07T22:30:12;16.50;99.90
39779;DHT22;25454;49.878;8.618;2023-05-07T22:35:13;16.50;99.90
39779;DHT22;25454;49.878;8.618;2023-05-07T22:40:14;16.50;99.90
39779;DHT22;25454;49.878;8.618;2023-05-07T22:45:14;16.50;99.90
39779;DHT22;25454;49.878;8.618;2023-05-07T22:50:15;16.60;99.90
39779;DHT22;25454;49.878;8.618;2023-05-07T22:55:16;16.60;99.90
39779;DHT22;25454;49.878;8.618;2023-05-07T23:00:16;16.50;99.90
39779;DHT22;25454;49.878;8.618;2023-05-07T23:05:17;16.60;99.90
39779;DHT22;25454;49.878;8.618;2023-05-07T23:10:18;16.50;99.90
39779;DHT22;25454;49.878;8.618;2023-05-07T23:15:18;16.60;99.90
39779;DHT22;25454;49.878;8.618;2023-05-07T23:20:19;16.50;99.90
39779;DHT22;25454;49.878;8.618;2023-05-07T23:25:20;16.50;99.90
39779;DHT22;25454;49.878;8.618;2023-05-07T23:30:20;16.50;99.90
39779;DHT22;25454;49.878;8.618;2023-05-07T23:35:21;16.40;99.90
39779;DHT22;25454;49.878;8.618;2023-05-07T23:40:22;16.40;99.90
39779;DHT22;25454;49.878;8.618;2023-05-07T23:45:22;16.30;99.90
39779;DHT22;25454;49.878;8.618;2023-05-07T23:50:23;16.30;99.90
39779;DHT22;25454;49.878;8.618;2023-05-07T23:55:26;16.30;99.90
